Time;durP1;ratioP1;P1;durP2;ratioP2;P2;SDS_P1;SDS_P2;PMS_P1;PMS_P2;Temp;Humidity;BMP_temperature;BMP_pressure;BME280_temperature;BME280_humidity;BME280_pressure;Samples;Min_cycle;Max_cycle;Signal;HPM_P1;HPM_P2
2022/10/08 00:00:52;;;;;;;10.50;3.30;;;13.60;99.90;;;;;;5027278;28;20224;-73
2022/10/08 00:03:19;;;;;;;11.47;3.17;;;13.60;99.90;;;;;;5025654;28;20184;-70
2022/10/08 00:05:59;;;;;;;8.07;3.03;;;13.50;99.90;;;;;;5035376;28;20258;-74
2022/10/08 00:08:28;;;;;;;7.47;2.27;;;13.60;99.90;;;;;;5025978;28;20191;-72
2022/10/08 00:10:59;;;;;;;9.40;2.67;;;13.70;99.90;;;;;;5032487;28;20178;-73
2022/10/08 00:13:27;;;;;;;9.03;2.67;;;13.70;99.90;;;;;;5035796;28;20551;-71
2022/10/08 00:15:53;;;;;;;8.77;2.57;;;13.60;99.90;;;;;;5032057;28;20207;-71
2022/10/08 00:18:20;;;;;;;9.00;3.30;;;13.60;99.90;;;;;;5029058;28;20188;-71
2022/10/08 00:20:46;;;;;;;7.80;2.97;;;13.60;99.90;;;;;;5029388;28;20226;-73
2022/10/08 00:23:12;;;;;;;7.00;2.80;;;13.70;99.90;;;;;;5036030;28;20191;-73
2022/10/08 00:25:41;;;;;;;11.67;3.23;;;13.70;99.90;;;;;;5035653;28;20223;-75
2022/10/08 00:28:08;;;;;;;11.10;2.93;;;13.70;99.90;;;;;;5035953;28;20195;-74
2022/10/08 00:30:38;;;;;;;5.90;3.33;;;13.70;99.90;;;;;;5035470;28;20285;-74
2022/10/08 00:33:05;;;;;;;8.43;4.27;;;13.60;99.90;;;;;;5035615;28;20181;-74
2022/10/08 00:35:40;;;;;;;10.00;2.53;;;13.60;99.90;;;;;;5035130;28;20198;-73
2022/10/08 00:38:06;;;;;;;8.57;2.83;;;13.60;99.90;;;;;;5024284;28;20271;-74
2022/10/08 00:40:43;;;;;;;8.23;2.60;;;13.60;99.90;;;;;;5023589;28;20239;-74
2022/10/08 00:43:16;;;;;;;3.93;2.10;;;13.70;99.90;;;;;;5024731;28;20208;-73
2022/10/08 00:45:45;;;;;;;9.27;2.47;;;13.70;99.90;;;;;;5030924;28;20201;-71
2022/10/08 00:48:19;;;;;;;6.80;3.27;;;13.70;99.90;;;;;;5031800;28;20199;-74
2022/10/08 00:50:46;;;;;;;4.90;3.03;;;13.70;99.90;;;;;;5035793;28;20180;-72
2022/10/08 00:53:12;;;;;;;4.87;2.20;;;13.80;99.90;;;;;;5026317;28;20191;-75
2022/10/08 00:55:40;;;;;;;19.37;3.33;;;13.80;99.90;;;;;;5028673;28;21143;-77
2022/10/08 00:58:20;;;;;;;8.43;3.40;;;13.90;99.90;;;;;;5043597;28;20668;-74
2022/10/08 01:00:47;;;;;;;9.70;3.37;;;13.80;99.90;;;;;;5022589;28;20275;-74
2022/10/08 01:03:12;;;;;;;6.90;2.83;;;13.80;99.90;;;;;;5032105;28;20184;-72
2022/10/08 01:06:05;;;;;;;7.27;3.10;;;13.70;99.90;;;;;;5035185;28;20196;-72
2022/10/08 01:09:00;;;;;;;8.10;3.13;;;13.80;99.90;;;;;;5029141;28;20252;-77
2022/10/08 01:11:38;;;;;;;5.87;2.73;;;13.70;99.90;;;;;;5034251;28;20196;-71
2022/10/08 01:14:12;;;;;;;5.90;2.40;;;13.80;99.90;;;;;;5018510;28;20181;-76
2022/10/08 01:16:53;;;;;;;16.73;4.90;;;13.80;99.90;;;;;;5030019;28;20189;-72
2022/10/08 01:19:37;;;;;;;17.03;7.53;;;13.80;99.90;;;;;;5034629;28;20176;-73
2022/10/08 01:22:21;;;;;;;8.40;2.50;;;13.80;99.90;;;;;;5039237;28;20188;-73
2022/10/08 01:27:57;;;;;;;7.67;2.50;;;13.80;99.90;;;;;;5035796;28;20247;-72
2022/10/08 01:30:23;;;;;;;6.20;2.63;;;13.70;99.90;;;;;;5020525;28;20549;-71
2022/10/08 01:32:55;;;;;;;7.47;3.67;;;13.70;99.90;;;;;;5031558;28;20189;-71
2022/10/08 01:35:28;;;;;;;11.47;3.27;;;13.60;99.90;;;;;;5034288;28;20547;-72
2022/10/08 01:37:58;;;;;;;9.83;3.23;;;13.50;99.90;;;;;;5053592;28;20184;-71
2022/10/08 01:40:29;;;;;;;9.17;3.90;;;13.50;99.90;;;;;;5033260;28;20189;-72
2022/10/08 01:42:58;;;;;;;8.60;3.37;;;13.30;99.90;;;;;;5045206;28;20180;-72
2022/10/08 01:45:31;;;;;;;15.10;3.10;;;12.50;99.90;;;;;;5050064;28;20225;-70
2022/10/08 01:48:00;;;;;;;11.80;3.23;;;12.70;99.90;;;;;;5026891;28;20185;-72
2022/10/08 01:50:42;;;;;;;9.30;3.77;;;12.80;99.90;;;;;;5027688;28;20177;-75
2022/10/08 01:53:11;;;;;;;12.87;4.50;;;12.70;99.90;;;;;;5032795;28;20185;-70
2022/10/08 01:55:46;;;;;;;5.57;2.93;;;12.80;99.90;;;;;;5032790;28;20933;-69
2022/10/08 01:58:20;;;;;;;9.70;4.23;;;12.90;99.90;;;;;;5038617;28;20527;-71
2022/10/08 02:00:49;;;;;;;14.23;4.93;;;12.90;99.90;;;;;;5023425;28;20201;-72
2022/10/08 02:03:14;;;;;;;9.57;3.63;;;12.80;99.90;;;;;;5036720;28;20199;-74
2022/10/08 02:05:47;;;;;;;12.13;5.07;;;12.70;99.90;;;;;;5032394;28;20213;-71
2022/10/08 02:08:13;;;;;;;13.90;4.37;;;12.60;99.90;;;;;;5027462;28;20193;-72
2022/10/08 02:10:39;;;;;;;9.37;5.23;;;12.60;99.90;;;;;;5030784;28;20189;-71
2022/10/08 02:13:05;;;;;;;14.53;4.60;;;12.60;99.90;;;;;;5030899;28;20181;-71
2022/10/08 02:15:34;;;;;;;12.10;5.10;;;12.60;99.90;;;;;;5038265;28;20256;-76
2022/10/08 02:18:17;;;;;;;14.73;4.93;;;12.60;99.90;;;;;;5053793;28;20196;-71
2022/10/08 02:20:52;;;;;;;12.57;5.90;;;12.60;99.90;;;;;;5037034;28;20192;-73
2022/10/08 02:23:38;;;;;;;12.33;5.60;;;12.60;99.90;;;;;;5020178;28;20195;-72
2022/10/08 02:26:08;;;;;;;17.23;6.37;;;12.50;99.90;;;;;;5035333;28;20242;-71
2022/10/08 02:28:49;;;;;;;8.63;5.53;;;12.50;99.90;;;;;;5031755;28;20628;-71
2022/10/08 02:31:36;;;;;;;10.37;6.00;;;12.50;99.90;;;;;;5024452;28;20611;-71
2022/10/08 02:34:10;;;;;;;22.13;7.33;;;12.60;99.90;;;;;;5027203;28;20185;-72
2022/10/08 02:36:41;;;;;;;14.37;5.93;;;12.70;99.90;;;;;;5033271;28;20280;-71
2022/10/08 02:39:09;;;;;;;17.87;6.50;;;12.80;99.90;;;;;;5028360;28;20246;-73
2022/10/08 02:41:45;;;;;;;11.50;6.60;;;12.90;99.90;;;;;;5037679;28;20216;-71
2022/10/08 02:44:19;;;;;;;12.33;6.67;;;12.90;99.90;;;;;;5034109;28;20187;-72
2022/10/08 02:46:48;;;;;;;11.93;6.30;;;12.90;99.90;;;;;;5030516;28;20205;-72
2022/10/08 02:49:27;;;;;;;14.33;7.60;;;12.90;99.90;;;;;;5026625;28;20180;-71
2022/10/08 02:51:56;;;;;;;16.37;6.57;;;12.90;99.90;;;;;;5025780;28;20208;-71
2022/10/08 02:54:23;;;;;;;11.90;7.23;;;13.00;99.90;;;;;;5030992;28;20271;-73
2022/10/08 02:57:10;;;;;;;13.33;6.43;;;12.90;99.90;;;;;;5032232;28;20185;-71
2022/10/08 02:59:36;;;;;;;13.90;6.90;;;12.90;99.90;;;;;;5037742;28;20181;-71
2022/10/08 03:02:04;;;;;;;10.37;6.87;;;12.90;99.90;;;;;;5030953;28;20204;-74
2022/10/08 03:04:55;;;;;;;11.40;7.33;;;12.90;99.90;;;;;;5037166;28;20197;-73
2022/10/08 03:07:23;;;;;;;15.90;7.57;;;12.80;99.90;;;;;;5019402;28;20244;-72
2022/10/08 03:09:50;;;;;;;8.27;6.33;;;12.70;99.90;;;;;;5031088;28;20208;-74
2022/10/08 03:12:18;;;;;;;18.47;6.83;;;12.70;99.90;;;;;;5037509;28;20263;-71
2022/10/08 03:14:48;;;;;;;14.63;6.70;;;12.80;99.90;;;;;;5037081;28;20270;-71
2022/10/08 03:17:18;;;;;;;9.50;6.90;;;12.80;99.90;;;;;;5033075;28;20621;-70
2022/10/08 03:19:44;;;;;;;11.07;6.80;;;12.80;99.90;;;;;;5037079;28;20184;-70
2022/10/08 03:22:10;;;;;;;15.53;8.37;;;12.80;99.90;;;;;;5028570;28;20193;-72
2022/10/08 03:24:36;;;;;;;16.83;6.97;;;12.80;99.90;;;;;;5030143;28;20259;-74
2022/10/08 03:27:03;;;;;;;16.53;7.70;;;12.80;99.90;;;;;;5036912;28;20530;-71
2022/10/08 03:29:28;;;;;;;18.07;8.70;;;12.70;99.90;;;;;;5036746;28;20267;-72
2022/10/08 03:31:54;;;;;;;21.90;8.37;;;12.80;99.90;;;;;;5029108;28;20593;-71
2022/10/08 03:34:20;;;;;;;15.67;6.23;;;12.70;99.90;;;;;;5026099;28;20177;-73
2022/10/08 03:36:46;;;;;;;9.97;6.60;;;12.70;99.90;;;;;;5036775;28;20175;-72
2022/10/08 03:39:12;;;;;;;12.90;6.63;;;12.70;99.90;;;;;;5022027;28;20490;-71
2022/10/08 03:41:38;;;;;;;13.63;7.33;;;12.60;99.90;;;;;;5021644;28;20580;-73
2022/10/08 03:44:08;;;;;;;9.23;6.57;;;12.70;99.90;;;;;;5024301;28;20184;-71
2022/10/08 03:46:34;;;;;;;11.27;7.10;;;12.70;99.90;;;;;;5030982;28;20207;-70
2022/10/08 03:49:00;;;;;;;11.77;6.33;;;12.80;99.90;;;;;;5036408;28;20180;-73
2022/10/08 03:51:25;;;;;;;15.07;6.50;;;12.80;99.90;;;;;;5030251;28;20178;-70
2022/10/08 03:53:51;;;;;;;11.87;5.90;;;12.90;99.90;;;;;;5035761;28;20184;-71
2022/10/08 03:56:20;;;;;;;14.23;7.97;;;12.90;99.90;;;;;;5031564;28;20188;-71
2022/10/08 03:58:50;;;;;;;16.73;8.13;;;13.00;99.90;;;;;;5030765;28;20466;-71
2022/10/08 04:01:16;;;;;;;10.47;6.77;;;13.00;99.90;;;;;;5029006;28;20201;-73
2022/10/08 04:03:44;;;;;;;12.63;8.63;;;13.00;99.90;;;;;;5031936;28;20185;-73
2022/10/08 04:06:10;;;;;;;8.60;7.70;;;12.90;99.90;;;;;;5035895;28;20208;-71
2022/10/08 04:08:37;;;;;;;10.77;6.90;;;12.90;99.90;;;;;;5035870;28;20175;-70
2022/10/08 04:11:05;;;;;;;13.97;7.23;;;12.90;99.90;;;;;;5036256;28;20615;-71
2022/10/08 04:13:31;;;;;;;12.40;7.73;;;12.80;99.90;;;;;;5036521;28;20196;-72
2022/10/08 04:16:02;;;;;;;14.37;7.70;;;12.70;99.90;;;;;;5051363;28;20216;-70
2022/10/08 04:18:28;;;;;;;11.17;7.50;;;12.80;99.90;;;;;;5035974;28;20195;-70
2022/10/08 04:20:59;;;;;;;17.93;7.00;;;12.80;99.90;;;;;;5031325;28;20188;-71
2022/10/08 04:23:25;;;;;;;13.13;7.97;;;12.70;99.90;;;;;;5025578;28;20193;-71
2022/10/08 04:25:52;;;;;;;15.23;7.97;;;12.60;99.90;;;;;;5024503;28;20189;-71
2022/10/08 04:28:19;;;;;;;18.07;8.00;;;12.60;99.90;;;;;;5027480;28;20177;-69
2022/10/08 04:31:02;;;;;;;14.50;7.80;;;12.60;99.90;;;;;;5028088;28;20235;-70
2022/10/08 04:33:29;;;;;;;19.90;8.30;;;12.70;99.90;;;;;;5034113;28;20188;-71
2022/10/08 04:35:55;;;;;;;9.90;8.23;;;12.80;99.90;;;;;;5034427;28;20177;-74
2022/10/08 04:38:21;;;;;;;16.63;9.13;;;12.70;99.90;;;;;;5043658;28;20180;-72
2022/10/08 04:40:46;;;;;;;13.20;8.23;;;12.60;99.90;;;;;;5027125;28;20188;-70
2022/10/08 04:43:12;;;;;;;15.13;8.13;;;12.60;99.90;;;;;;5044242;28;20658;-70
2022/10/08 04:45:45;;;;;;;12.87;7.70;;;12.60;99.90;;;;;;5027473;28;20193;-72
2022/10/08 04:48:13;;;;;;;13.53;8.73;;;12.50;99.90;;;;;;5034880;28;20188;-71
2022/10/08 04:50:39;;;;;;;14.57;7.80;;;12.50;99.90;;;;;;5050810;28;20200;-71
2022/10/08 04:53:06;;;;;;;22.17;7.97;;;12.50;99.90;;;;;;5029529;28;20871;-71
2022/10/08 04:55:32;;;;;;;19.67;9.13;;;12.50;99.90;;;;;;5031474;28;20484;-71
2022/10/08 04:57:58;;;;;;;14.40;8.37;;;12.50;99.90;;;;;;5017688;28;20176;-75
2022/10/08 05:00:24;;;;;;;15.03;8.00;;;12.50;99.90;;;;;;5046355;28;20188;-71
2022/10/08 05:02:49;;;;;;;18.60;9.10;;;12.50;99.90;;;;;;5033416;28;20588;-71
2022/10/08 05:05:15;;;;;;;19.20;8.97;;;12.50;99.90;;;;;;5034691;28;20661;-71
2022/10/08 05:07:41;;;;;;;18.30;9.17;;;12.50;99.90;;;;;;5034118;28;20259;-71
2022/10/08 05:10:08;;;;;;;10.50;7.50;;;12.60;99.90;;;;;;5030358;28;20251;-72
2022/10/08 05:12:33;;;;;;;11.47;8.23;;;12.60;99.90;;;;;;5035561;28;20542;-71
2022/10/08 05:14:59;;;;;;;20.40;8.27;;;12.50;99.90;;;;;;5022950;28;20284;-73
2022/10/08 05:17:25;;;;;;;20.37;7.83;;;12.60;99.90;;;;;;5032134;28;20259;-73
2022/10/08 05:19:51;;;;;;;15.17;7.30;;;12.50;99.90;;;;;;5034960;28;20585;-74
2022/10/08 05:22:17;;;;;;;14.73;7.33;;;12.70;99.90;;;;;;5035300;28;20173;-73
2022/10/08 05:24:43;;;;;;;20.33;8.73;;;12.70;99.90;;;;;;5046707;28;20234;-75
2022/10/08 05:27:09;;;;;;;11.67;8.47;;;12.70;99.90;;;;;;5024532;28;20212;-77
2022/10/08 05:29:34;;;;;;;19.53;9.30;;;12.70;99.90;;;;;;5034315;28;20188;-76
2022/10/08 05:32:00;;;;;;;19.10;9.67;;;12.90;99.90;;;;;;5023762;28;20194;-78
2022/10/08 05:34:26;;;;;;;24.50;9.93;;;12.90;99.90;;;;;;5023044;28;20272;-77
2022/10/08 05:36:52;;;;;;;25.73;9.70;;;12.70;99.90;;;;;;5029778;28;20259;-77
2022/10/08 05:39:18;;;;;;;17.57;9.53;;;12.70;99.90;;;;;;5026036;28;20584;-72
2022/10/08 05:41:44;;;;;;;13.83;9.40;;;12.60;99.90;;;;;;5025993;28;20204;-69
2022/10/08 05:44:10;;;;;;;15.40;10.60;;;12.50;99.90;;;;;;5034644;28;20181;-72
2022/10/08 05:46:37;;;;;;;21.73;13.50;;;12.50;99.90;;;;;;5031700;28;20258;-71
2022/10/08 05:49:06;;;;;;;16.40;10.43;;;12.60;99.90;;;;;;5028792;28;20185;-71
2022/10/08 05:51:32;;;;;;;14.27;9.20;;;12.50;99.90;;;;;;5030007;28;20604;-71
2022/10/08 05:53:59;;;;;;;23.87;9.87;;;12.40;99.90;;;;;;5029299;28;20208;-72
2022/10/08 05:56:27;;;;;;;12.83;9.00;;;12.30;99.90;;;;;;5033078;28;20173;-76
2022/10/08 05:58:53;;;;;;;20.07;10.03;;;12.30;99.90;;;;;;5035092;28;20189;-70
2022/10/08 06:01:21;;;;;;;21.70;9.47;;;12.20;99.90;;;;;;5034568;28;20266;-73
2022/10/08 06:03:52;;;;;;;19.53;9.87;;;12.20;99.90;;;;;;5035147;28;20616;-75
2022/10/08 06:06:18;;;;;;;15.77;8.77;;;12.10;99.90;;;;;;5053171;28;20240;-70
2022/10/08 06:08:45;;;;;;;16.60;9.50;;;12.00;99.90;;;;;;5038806;28;20188;-71
2022/10/08 06:11:11;;;;;;;13.47;8.40;;;11.90;99.90;;;;;;5026918;28;20911;-70
2022/10/08 06:13:37;;;;;;;20.53;11.27;;;12.00;99.90;;;;;;5032430;28;20181;-71
2022/10/08 06:16:08;;;;;;;17.73;11.57;;;12.00;99.90;;;;;;5024721;28;20509;-72
2022/10/08 06:18:36;;;;;;;18.50;9.47;;;12.10;99.90;;;;;;5031245;28;20192;-71
2022/10/08 06:21:05;;;;;;;17.17;8.53;;;12.00;99.90;;;;;;5023721;28;20197;-72
2022/10/08 06:23:30;;;;;;;17.57;9.53;;;12.10;99.90;;;;;;5037950;28;20572;-71
2022/10/08 06:26:01;;;;;;;18.17;6.90;;;12.20;99.90;;;;;;5052650;28;20295;-70
2022/10/08 06:28:27;;;;;;;13.57;7.07;;;12.10;99.90;;;;;;5029472;28;20181;-72
2022/10/08 06:30:53;;;;;;;15.57;7.77;;;12.10;99.90;;;;;;5029006;28;20480;-74
2022/10/08 06:33:18;;;;;;;14.97;8.07;;;12.10;99.90;;;;;;5029852;28;20553;-73
2022/10/08 06:35:44;;;;;;;13.47;7.53;;;12.10;99.90;;;;;;5031318;28;20495;-74
2022/10/08 06:38:11;;;;;;;14.23;7.87;;;12.00;99.90;;;;;;5034685;28;20192;-71
2022/10/08 06:40:38;;;;;;;14.33;8.23;;;11.50;99.90;;;;;;5038059;28;20263;-73
2022/10/08 06:43:16;;;;;;;18.90;9.40;;;11.60;99.90;;;;;;5032468;28;20267;-73
2022/10/08 06:45:43;;;;;;;10.37;6.53;;;11.60;99.90;;;;;;5033954;28;20825;-70
2022/10/08 06:48:10;;;;;;;11.67;7.00;;;11.70;99.90;;;;;;5023217;28;20185;-76
2022/10/08 06:50:36;;;;;;;10.60;7.87;;;11.60;99.90;;;;;;5030474;28;20211;-73
2022/10/08 06:53:07;;;;;;;18.50;9.17;;;11.60;99.90;;;;;;5037493;28;20545;-71
2022/10/08 06:55:33;;;;;;;15.50;8.27;;;11.60;99.90;;;;;;5037553;28;20263;-74
2022/10/08 06:58:00;;;;;;;14.03;9.40;;;11.60;99.90;;;;;;5033622;28;20189;-70
2022/10/08 07:00:26;;;;;;;16.67;7.73;;;11.80;99.90;;;;;;5037073;28;20193;-71
2022/10/08 07:02:51;;;;;;;13.73;8.07;;;11.80;99.90;;;;;;5023727;28;20195;-74
2022/10/08 07:05:18;;;;;;;14.83;8.03;;;11.00;99.90;;;;;;5033214;28;20181;-73
2022/10/08 07:07:44;;;;;;;17.40;8.50;;;0.40;99.90;;;;;;5035260;28;20486;-74
2022/10/08 07:10:10;;;;;;;15.87;7.83;;;-0.20;99.90;;;;;;5033850;28;20200;-72
2022/10/08 07:12:35;;;;;;;11.93;7.73;;;0.40;99.90;;;;;;5027257;28;20267;-76
2022/10/08 07:15:01;;;;;;;11.83;6.17;;;0.50;99.90;;;;;;5030779;28;20201;-72
2022/10/08 07:17:28;;;;;;;17.70;7.47;;;0.60;99.90;;;;;;5025172;28;20196;-76
2022/10/08 07:19:56;;;;;;;15.47;6.50;;;0.70;99.90;;;;;;5031910;28;20263;-72
2022/10/08 07:22:23;;;;;;;17.40;6.40;;;0.20;99.90;;;;;;5020869;28;20612;-74
2022/10/08 07:24:50;;;;;;;13.40;7.43;;;0.50;99.90;;;;;;5035431;28;20220;-73
2022/10/08 07:27:17;;;;;;;16.20;7.30;;;0.60;99.90;;;;;;5033468;28;20213;-72
2022/10/08 07:29:43;;;;;;;13.90;6.27;;;0.50;99.90;;;;;;5035332;28;20181;-70
2022/10/08 07:32:08;;;;;;;15.70;6.50;;;-0.10;99.90;;;;;;5031228;28;20191;-74
2022/10/08 07:34:34;;;;;;;18.20;7.37;;;0.40;99.90;;;;;;5033096;28;20207;-72
2022/10/08 07:37:00;;;;;;;13.67;6.23;;;0.00;99.90;;;;;;5031637;28;20189;-74
2022/10/08 07:39:26;;;;;;;12.07;7.37;;;12.50;99.90;;;;;;5030236;28;20196;-74
2022/10/08 07:41:52;;;;;;;11.17;5.57;;;12.40;99.90;;;;;;5032821;28;20192;-70
2022/10/08 07:44:18;;;;;;;15.33;6.30;;;12.50;99.90;;;;;;5035960;28;20663;-72
2022/10/08 07:46:49;;;;;;;13.63;5.70;;;12.40;99.90;;;;;;5018932;28;20312;-75
2022/10/08 07:49:16;;;;;;;10.37;5.23;;;12.40;99.90;;;;;;5018362;28;20205;-72
2022/10/08 07:51:42;;;;;;;13.10;4.53;;;12.50;99.90;;;;;;5019205;28;20581;-74
2022/10/08 07:54:12;;;;;;;10.30;4.87;;;12.50;99.90;;;;;;5018451;28;20276;-73
2022/10/08 07:56:38;;;;;;;11.67;5.63;;;12.70;99.90;;;;;;5018419;28;20195;-71
2022/10/08 07:59:04;;;;;;;14.97;5.33;;;12.70;99.90;;;;;;5028494;28;20187;-72
2022/10/08 08:01:32;;;;;;;10.93;5.37;;;12.90;99.90;;;;;;5021468;28;20203;-76
2022/10/08 08:04:00;;;;;;;10.23;6.33;;;13.00;99.90;;;;;;5028599;28;20192;-74
2022/10/08 08:06:28;;;;;;;9.67;4.53;;;13.20;99.90;;;;;;5027651;28;20651;-74
2022/10/08 08:08:54;;;;;;;10.37;4.63;;;13.50;99.90;;;;;;5034116;28;20184;-73
2022/10/08 08:11:22;;;;;;;11.10;4.43;;;13.50;99.90;;;;;;5036229;28;20302;-71
2022/10/08 08:13:48;;;;;;;11.97;4.73;;;13.10;99.90;;;;;;5023681;28;20183;-71
2022/10/08 08:16:17;;;;;;;12.47;4.73;;;-1.40;99.90;;;;;;5029755;28;20299;-72
2022/10/08 08:18:46;;;;;;;10.50;4.40;;;0.10;99.90;;;;;;5030471;28;20532;-70
2022/10/08 08:21:20;;;;;;;11.20;3.50;;;-0.70;99.90;;;;;;5033937;28;20542;-70
2022/10/08 08:23:48;;;;;;;8.13;3.47;;;-0.10;99.90;;;;;;5018727;28;20191;-71
2022/10/08 08:26:16;;;;;;;10.73;3.77;;;0.10;99.90;;;;;;5025220;28;20230;-75
2022/10/08 08:28:42;;;;;;;7.93;2.93;;;0.00;99.90;;;;;;5034342;28;20211;-74
2022/10/08 08:31:11;;;;;;;11.63;2.70;;;0.00;99.90;;;;;;5027816;28;20185;-72
2022/10/08 08:33:37;;;;;;;8.03;4.50;;;0.10;99.90;;;;;;5035690;28;20199;-71
2022/10/08 08:36:03;;;;;;;9.80;3.50;;;0.40;99.90;;;;;;5035613;28;20184;-73
2022/10/08 08:38:30;;;;;;;11.23;3.70;;;0.50;99.90;;;;;;5026315;28;20195;-71
2022/10/08 08:41:20;;;;;;;13.07;3.63;;;0.40;99.90;;;;;;5033565;28;20603;-72
2022/10/08 08:43:47;;;;;;;9.20;2.80;;;-0.30;99.90;;;;;;5026053;28;20184;-70
2022/10/08 08:46:16;;;;;;;16.10;3.60;;;11.90;99.90;;;;;;5028417;28;20303;-70
2022/10/08 08:48:43;;;;;;;11.97;4.97;;;13.80;99.90;;;;;;5017414;28;20260;-71
2022/10/08 08:51:09;;;;;;;5.40;3.77;;;13.70;99.90;;;;;;5026481;28;20192;-71
2022/10/08 08:53:35;;;;;;;9.27;3.47;;;13.80;99.90;;;;;;5023052;28;20177;-72
2022/10/08 08:56:04;;;;;;;9.77;2.20;;;13.80;99.90;;;;;;5036462;28;20207;-73
2022/10/08 08:58:45;;;;;;;6.27;1.97;;;13.80;99.90;;;;;;5032164;28;20491;-73
2022/10/08 09:01:18;;;;;;;6.97;2.67;;;13.80;99.90;;;;;;5029420;28;20638;-72
2022/10/08 09:03:53;;;;;;;12.83;3.80;;;13.80;99.90;;;;;;5032121;28;20196;-70
2022/10/08 09:06:22;;;;;;;9.87;2.83;;;13.90;99.90;;;;;;5021371;28;20212;-73
2022/10/08 09:09:08;;;;;;;5.37;2.03;;;-0.70;99.90;;;;;;5015519;28;20600;-71
2022/10/08 09:11:36;;;;;;;26.50;2.53;;;0.30;99.90;;;;;;5027275;28;20267;-69
2022/10/08 09:14:26;;;;;;;5.97;1.70;;;0.80;99.90;;;;;;5033620;28;20508;-72
2022/10/08 09:16:54;;;;;;;5.43;2.97;;;0.70;99.90;;;;;;5035107;28;20188;-72
2022/10/08 09:19:20;;;;;;;5.37;2.23;;;0.30;99.90;;;;;;5031403;28;20280;-69
2022/10/08 09:21:46;;;;;;;8.67;2.83;;;1.00;99.90;;;;;;5029649;28;20279;-71
2022/10/08 09:24:13;;;;;;;4.93;1.53;;;1.00;99.90;;;;;;5035151;28;20234;-71
2022/10/08 09:26:40;;;;;;;5.47;2.47;;;1.00;99.90;;;;;;5034870;28;20200;-71
2022/10/08 09:29:06;;;;;;;6.77;1.83;;;1.40;99.90;;;;;;5030197;28;20174;-69
2022/10/08 09:31:40;;;;;;;4.13;1.40;;;1.70;99.90;;;;;;5049455;28;20181;-72
2022/10/08 09:34:09;;;;;;;10.13;2.50;;;1.60;99.90;;;;;;5032594;28;20192;-73
2022/10/08 09:36:36;;;;;;;7.90;2.27;;;1.40;99.90;;;;;;5023976;28;20246;-74
2022/10/08 09:39:06;;;;;;;6.77;1.93;;;1.50;99.90;;;;;;5025132;28;20192;-72
2022/10/08 09:41:32;;;;;;;5.87;1.80;;;1.20;99.90;;;;;;5027262;28;20177;-74
2022/10/08 09:44:15;;;;;;;7.20;2.23;;;1.50;99.90;;;;;;5029242;28;20296;-72
2022/10/08 09:46:41;;;;;;;5.50;1.73;;;1.60;99.90;;;;;;5028263;28;20220;-70
2022/10/08 09:49:32;;;;;;;2.33;1.33;;;2.30;99.90;;;;;;5038907;28;20263;-73
2022/10/08 09:52:12;;;;;;;2.47;1.40;;;2.20;99.90;;;;;;5026857;28;20181;-70
2022/10/08 09:55:18;;;;;;;4.23;1.07;;;13.30;99.90;;;;;;5026213;28;20185;-70
2022/10/08 09:57:50;;;;;;;5.33;1.70;;;15.10;99.90;;;;;;5029289;28;20192;-74
2022/10/08 10:00:27;;;;;;;7.77;1.40;;;15.10;99.90;;;;;;5041750;28;20241;-70
2022/10/08 10:02:54;;;;;;;2.30;1.47;;;14.90;99.90;;;;;;5030185;28;20185;-73
2022/10/08 10:05:24;;;;;;;6.70;2.03;;;14.90;99.90;;;;;;5036973;28;20192;-70
2022/10/08 10:07:50;;;;;;;4.70;1.27;;;14.80;99.90;;;;;;5039575;28;20233;-72
2022/10/08 10:10:28;;;;;;;5.60;1.83;;;15.00;99.90;;;;;;5033905;28;20192;-70
2022/10/08 10:13:27;;;;;;;4.27;2.50;;;14.90;99.90;;;;;;5022370;28;20180;-71
2022/10/08 10:16:17;;;;;;;1.47;1.30;;;15.00;99.90;;;;;;5019974;28;20205;-72
2022/10/08 10:18:57;;;;;;;9.00;2.40;;;15.00;99.90;;;;;;5037010;28;20619;-78
2022/10/08 10:21:48;;;;;;;5.50;2.37;;;14.90;99.90;;;;;;5033063;28;20180;-74
2022/10/08 10:24:29;;;;;;;4.13;1.80;;;14.90;99.90;;;;;;5029776;28;20197;-73
2022/10/08 10:27:05;;;;;;;5.67;1.77;;;15.00;99.90;;;;;;5035394;28;20512;-75
2022/10/08 10:29:43;;;;;;;3.87;1.93;;;15.00;99.90;;;;;;5027511;28;20175;-75
2022/10/08 10:32:19;;;;;;;4.57;2.43;;;14.90;99.90;;;;;;5033161;28;20196;-70
2022/10/08 10:34:51;;;;;;;9.73;2.03;;;14.90;99.90;;;;;;5037459;28;20267;-72
2022/10/08 10:37:28;;;;;;;5.00;1.47;;;15.20;99.90;;;;;;5026331;28;20211;-71
2022/10/08 10:40:05;;;;;;;3.50;1.40;;;15.10;99.90;;;;;;5023497;28;20178;-71
2022/10/08 10:42:49;;;;;;;3.67;1.20;;;15.30;99.90;;;;;;5035493;28;20189;-76
2022/10/08 10:45:33;;;;;;;9.27;2.27;;;15.50;99.90;;;;;;5028118;28;20189;-78
2022/10/08 10:48:00;;;;;;;5.67;2.37;;;15.80;99.90;;;;;;5024405;28;20180;-73
2022/10/08 10:50:39;;;;;;;8.23;1.27;;;15.90;99.90;;;;;;5021958;28;20236;-72
2022/10/08 10:53:44;;;;;;;3.77;2.50;;;14.70;99.90;;;;;;5029842;28;20573;-75
2022/10/08 10:56:20;;;;;;;3.40;1.00;;;15.10;99.90;;;;;;5033142;28;20230;-72
2022/10/08 10:58:48;;;;;;;1.83;1.00;;;16.30;99.90;;;;;;5026859;28;20184;-71
2022/10/08 11:01:25;;;;;;;8.33;2.37;;;16.20;99.90;;;;;;5032434;28;20262;-74
2022/10/08 11:04:14;;;;;;;6.53;1.97;;;16.00;99.90;;;;;;5036692;28;20580;-72
2022/10/08 11:07:11;;;;;;;5.20;1.53;;;16.00;99.90;;;;;;5036346;28;20630;-71
2022/10/08 11:09:43;;;;;;;2.23;1.20;;;16.00;99.90;;;;;;5009713;28;20194;-74
2022/10/08 11:12:37;;;;;;;4.53;1.50;;;15.90;99.90;;;;;;5035985;28;20176;-75
2022/10/08 11:15:27;;;;;;;6.83;2.90;;;15.80;99.90;;;;;;5035543;28;20496;-75
2022/10/08 11:18:30;;;;;;;4.60;2.23;;;15.80;99.90;;;;;;5033910;28;20467;-75
2022/10/08 11:21:27;;;;;;;2.77;1.30;;;16.00;99.90;;;;;;5033938;28;20188;-75
2022/10/08 11:24:32;;;;;;;4.57;1.67;;;16.20;99.90;;;;;;5054114;28;20211;-76
2022/10/08 11:27:21;;;;;;;8.43;1.27;;;2.50;99.90;;;;;;5026035;28;20224;-76
2022/10/08 11:30:13;;;;;;;4.63;1.13;;;2.90;99.90;;;;;;5030885;28;20193;-72
2022/10/08 11:32:48;;;;;;;8.23;2.30;;;3.00;99.90;;;;;;5031276;28;20199;-73
2022/10/08 11:35:42;;;;;;;3.07;0.90;;;14.80;99.90;;;;;;5029652;28;20222;-75
2022/10/08 11:38:13;;;;;;;1.70;1.27;;;16.40;99.90;;;;;;5030017;28;20181;-78
2022/10/08 11:40:48;;;;;;;6.33;1.10;;;14.40;99.90;;;;;;5035395;28;20180;-76
2022/10/08 11:43:43;;;;;;;4.70;1.87;;;16.00;99.90;;;;;;5025758;28;20585;-75
2022/10/08 11:46:29;;;;;;;3.83;1.60;;;17.80;99.90;;;;;;5025274;28;20198;-78
2022/10/08 11:48:57;;;;;;;1.80;0.90;;;18.40;99.90;;;;;;5026084;28;20176;-76
2022/10/08 11:51:23;;;;;;;3.10;1.37;;;18.70;98.40;;;;;;5025395;28;20192;-72
2022/10/08 11:54:06;;;;;;;4.23;1.30;;;16.90;96.60;;;;;;5023781;28;20572;-72
2022/10/08 11:56:34;;;;;;;5.43;1.73;;;2.30;92.40;;;;;;5020552;28;20193;-75
2022/10/08 11:59:17;;;;;;;3.77;1.00;;;3.80;92.50;;;;;;5027481;28;20185;-73
2022/10/08 12:01:51;;;;;;;6.60;2.23;;;3.80;92.50;;;;;;5030066;28;20497;-77
2022/10/08 12:04:20;;;;;;;1.37;1.00;;;5.30;93.00;;;;;;5023399;28;20201;-74
2022/10/08 12:06:58;;;;;;;3.63;1.40;;;17.50;96.10;;;;;;5023028;28;20236;-74
2022/10/08 12:09:24;;;;;;;5.93;1.47;;;19.90;95.60;;;;;;5030354;28;20238;-72
2022/10/08 12:11:53;;;;;;;3.60;1.43;;;20.30;93.90;;;;;;5036037;28;20522;-73
2022/10/08 12:14:19;;;;;;;3.80;1.37;;;20.30;93.00;;;;;;5048175;28;20635;-72
2022/10/08 12:16:47;;;;;;;2.63;0.90;;;-2.60;79.90;;;;;;5027864;28;20184;-75
2022/10/08 12:19:34;;;;;;;1.90;1.00;;;21.00;92.10;;;;;;5026759;28;20314;-72
2022/10/08 12:22:04;;;;;;;3.47;1.30;;;20.20;93.00;;;;;;5022843;28;20180;-74
2022/10/08 12:24:38;;;;;;;3.73;1.27;;;18.60;93.50;;;;;;5033790;28;20517;-71
2022/10/08 12:27:16;;;;;;;5.17;1.20;;;19.00;95.50;;;;;;5030774;28;20207;-71
2022/10/08 12:30:09;;;;;;;3.03;1.10;;;18.80;95.40;;;;;;5031936;28;20546;-73
2022/10/08 12:32:41;;;;;;;4.67;1.47;;;18.00;95.90;;;;;;5025765;28;20259;-73
2022/10/08 12:35:19;;;;;;;7.37;2.03;;;18.30;96.50;;;;;;5029607;28;20550;-74
2022/10/08 12:38:12;;;;;;;3.73;1.37;;;19.40;96.50;;;;;;5027991;28;20191;-74
2022/10/08 12:41:02;;;;;;;4.47;1.10;;;20.20;94.70;;;;;;5022853;28;20177;-72
2022/10/08 12:43:49;;;;;;;7.50;2.40;;;20.10;93.70;;;;;;5030078;28;20188;-72
2022/10/08 12:46:17;;;;;;;2.47;1.17;;;20.10;93.70;;;;;;5033321;28;20201;-73
2022/10/08 12:49:29;;;;;;;4.60;1.53;;;19.80;93.50;;;;;;5035299;28;20624;-72
2022/10/08 12:52:06;;;;;;;5.73;1.50;;;18.90;95.60;;;;;;5033311;28;20538;-74
2022/10/08 12:54:33;;;;;;;6.57;1.33;;;19.40;95.80;;;;;;5028326;28;20546;-74
2022/10/08 12:57:00;;;;;;;1.93;1.13;;;19.60;93.90;;;;;;5029061;28;20220;-73
2022/10/08 12:59:32;;;;;;;3.77;0.93;;;19.40;93.20;;;;;;5030524;28;20605;-75
2022/10/08 13:01:57;;;;;;;3.40;1.00;;;21.60;94.10;;;;;;5017070;28;20197;-78
2022/10/08 13:04:31;;;;;;;4.57;2.43;;;19.30;89.60;;;;;;5028764;28;20234;-71
2022/10/08 13:06:57;;;;;;;3.43;1.17;;;-24.80;58.80;;;;;;5032124;28;20558;-76
2022/10/08 13:09:34;;;;;;;9.17;1.70;;;-27.20;56.10;;;;;;5035383;28;20233;-72